sensor_id;sensor_type;location;lat;lon;timestamp;P1;durP1;ratioP1;P2;durP2;ratioP2
38117;SDS011;23928;47.562;7.508;2022-07-25T00:02:02;5.70;;;5.20;;
38117;SDS011;23928;47.562;7.508;2022-07-25T00:04:28;6.83;;;5.50;;
38117;SDS011;23928;47.562;7.508;2022-07-25T00:06:54;8.53;;;5.73;;
38117;SDS011;23928;47.562;7.508;2022-07-25T00:09:19;6.37;;;5.63;;
38117;SDS011;23928;47.562;7.508;2022-07-25T00:11:45;5.93;;;5.37;;
38117;SDS011;23928;47.562;7.508;2022-07-25T00:14:11;5.90;;;5.40;;
38117;SDS011;23928;47.562;7.508;2022-07-25T00:16:37;6.00;;;5.43;;
38117;SDS011;23928;47.562;7.508;2022-07-25T00:19:04;7.37;;;5.73;;
38117;SDS011;23928;47.562;7.508;2022-07-25T00:21:29;6.30;;;5.70;;
38117;SDS011;23928;47.562;7.508;2022-07-25T00:23:55;6.67;;;5.80;;
38117;SDS011;23928;47.562;7.508;2022-07-25T00:26:21;6.33;;;5.80;;
38117;SDS011;23928;47.562;7.508;2022-07-25T00:28:46;5.83;;;5.23;;
38117;SDS011;23928;47.562;7.508;2022-07-25T00:31:12;5.90;;;5.30;;
38117;SDS011;23928;47.562;7.508;2022-07-25T00:33:37;7.33;;;5.30;;
38117;SDS011;23928;47.562;7.508;2022-07-25T00:36:04;6.20;;;5.60;;
38117;SDS011;23928;47.562;7.508;2022-07-25T00:38:33;6.37;;;5.77;;
38117;SDS011;23928;47.562;7.508;2022-07-25T00:40:59;6.13;;;5.47;;
38117;SDS011;23928;47.562;7.508;2022-07-25T00:43:27;9.17;;;5.93;;
38117;SDS011;23928;47.562;7.508;2022-07-25T00:45:52;6.47;;;5.70;;
38117;SDS011;23928;47.562;7.508;2022-07-25T00:48:18;7.00;;;5.40;;
38117;SDS011;23928;47.562;7.508;2022-07-25T00:50:43;7.87;;;6.00;;
38117;SDS011;23928;47.562;7.508;2022-07-25T00:53:09;6.00;;;5.33;;
38117;SDS011;23928;47.562;7.508;2022-07-25T00:55:35;6.13;;;5.53;;
38117;SDS011;23928;47.562;7.508;2022-07-25T00:58:01;7.77;;;5.80;;
38117;SDS011;23928;47.562;7.508;2022-07-25T01:00:26;7.50;;;6.23;;
38117;SDS011;23928;47.562;7.508;2022-07-25T01:02:52;7.37;;;6.10;;
38117;SDS011;23928;47.562;7.508;2022-07-25T01:05:18;6.40;;;5.70;;
38117;SDS011;23928;47.562;7.508;2022-07-25T01:07:44;6.83;;;6.13;;
38117;SDS011;23928;47.562;7.508;2022-07-25T01:10:10;7.93;;;6.43;;
38117;SDS011;23928;47.562;7.508;2022-07-25T01:12:53;6.73;;;6.13;;
38117;SDS011;23928;47.562;7.508;2022-07-25T01:15:20;6.23;;;5.57;;
38117;SDS011;23928;47.562;7.508;2022-07-25T01:17:47;5.93;;;5.40;;
38117;SDS011;23928;47.562;7.508;2022-07-25T01:20:14;6.87;;;6.27;;
38117;SDS011;23928;47.562;7.508;2022-07-25T01:22:41;7.80;;;6.07;;
38117;SDS011;23928;47.562;7.508;2022-07-25T01:25:07;6.93;;;6.33;;
38117;SDS011;23928;47.562;7.508;2022-07-25T01:27:33;5.67;;;5.17;;
38117;SDS011;23928;47.562;7.508;2022-07-25T01:29:59;5.87;;;5.27;;
38117;SDS011;23928;47.562;7.508;2022-07-25T01:32:24;8.87;;;6.17;;
38117;SDS011;23928;47.562;7.508;2022-07-25T01:34:50;6.40;;;5.77;;
38117;SDS011;23928;47.562;7.508;2022-07-25T01:37:16;6.37;;;5.77;;
38117;SDS011;23928;47.562;7.508;2022-07-25T01:39:41;7.90;;;5.97;;
38117;SDS011;23928;47.562;7.508;2022-07-25T01:42:07;8.13;;;6.30;;
38117;SDS011;23928;47.562;7.508;2022-07-25T01:44:32;6.20;;;5.60;;
38117;SDS011;23928;47.562;7.508;2022-07-25T01:46:58;6.30;;;5.43;;
38117;SDS011;23928;47.562;7.508;2022-07-25T01:49:23;6.27;;;5.67;;
38117;SDS011;23928;47.562;7.508;2022-07-25T01:51:50;7.07;;;5.97;;
38117;SDS011;23928;47.562;7.508;2022-07-25T01:54:16;6.53;;;5.93;;
38117;SDS011;23928;47.562;7.508;2022-07-25T01:56:45;6.93;;;6.23;;
38117;SDS011;23928;47.562;7.508;2022-07-25T01:59:11;7.30;;;6.00;;
38117;SDS011;23928;47.562;7.508;2022-07-25T02:01:36;7.00;;;6.27;;
38117;SDS011;23928;47.562;7.508;2022-07-25T02:04:02;9.03;;;6.07;;
38117;SDS011;23928;47.562;7.508;2022-07-25T02:06:28;6.60;;;5.97;;
38117;SDS011;23928;47.562;7.508;2022-07-25T02:08:54;7.03;;;6.37;;
38117;SDS011;23928;47.562;7.508;2022-07-25T02:11:20;6.87;;;5.97;;
38117;SDS011;23928;47.562;7.508;2022-07-25T02:13:45;8.80;;;5.70;;
38117;SDS011;23928;47.562;7.508;2022-07-25T02:16:11;9.40;;;6.43;;
38117;SDS011;23928;47.562;7.508;2022-07-25T02:18:37;8.73;;;6.43;;
38117;SDS011;23928;47.562;7.508;2022-07-25T02:21:03;6.97;;;6.30;;
38117;SDS011;23928;47.562;7.508;2022-07-25T02:23:33;6.73;;;6.03;;
38117;SDS011;23928;47.562;7.508;2022-07-25T02:25:59;7.33;;;6.53;;
38117;SDS011;23928;47.562;7.508;2022-07-25T02:28:25;6.63;;;5.97;;
38117;SDS011;23928;47.562;7.508;2022-07-25T02:30:50;8.37;;;6.87;;
38117;SDS011;23928;47.562;7.508;2022-07-25T02:33:16;8.50;;;6.60;;
38117;SDS011;23928;47.562;7.508;2022-07-25T02:35:42;8.23;;;6.20;;
38117;SDS011;23928;47.562;7.508;2022-07-25T02:38:07;7.23;;;6.43;;
38117;SDS011;23928;47.562;7.508;2022-07-25T02:40:33;7.30;;;6.20;;
38117;SDS011;23928;47.562;7.508;2022-07-25T02:42:59;7.00;;;6.40;;
38117;SDS011;23928;47.562;7.508;2022-07-25T02:45:24;7.93;;;6.83;;
38117;SDS011;23928;47.562;7.508;2022-07-25T02:47:50;7.27;;;6.53;;
38117;SDS011;23928;47.562;7.508;2022-07-25T02:50:16;7.20;;;6.50;;
38117;SDS011;23928;47.562;7.508;2022-07-25T02:52:42;7.77;;;6.80;;
38117;SDS011;23928;47.562;7.508;2022-07-25T02:55:08;7.10;;;6.40;;
38117;SDS011;23928;47.562;7.508;2022-07-25T02:57:35;7.23;;;6.53;;
38117;SDS011;23928;47.562;7.508;2022-07-25T03:00:01;6.83;;;6.23;;
38117;SDS011;23928;47.562;7.508;2022-07-25T03:02:29;6.80;;;6.13;;
38117;SDS011;23928;47.562;7.508;2022-07-25T03:04:54;6.47;;;5.87;;
38117;SDS011;23928;47.562;7.508;2022-07-25T03:07:20;6.50;;;5.73;;
38117;SDS011;23928;47.562;7.508;2022-07-25T03:09:45;8.03;;;6.43;;
38117;SDS011;23928;47.562;7.508;2022-07-25T03:12:11;6.93;;;6.23;;
38117;SDS011;23928;47.562;7.508;2022-07-25T03:14:37;7.37;;;6.67;;
38117;SDS011;23928;47.562;7.508;2022-07-25T03:17:02;8.07;;;7.07;;
38117;SDS011;23928;47.562;7.508;2022-07-25T03:19:28;7.17;;;6.17;;
38117;SDS011;23928;47.562;7.508;2022-07-25T03:21:53;8.77;;;6.63;;
38117;SDS011;23928;47.562;7.508;2022-07-25T03:24:19;7.03;;;6.33;;
38117;SDS011;23928;47.562;7.508;2022-07-25T03:26:44;7.47;;;6.57;;
38117;SDS011;23928;47.562;7.508;2022-07-25T03:29:10;7.30;;;6.60;;
38117;SDS011;23928;47.562;7.508;2022-07-25T03:31:36;8.50;;;6.70;;
38117;SDS011;23928;47.562;7.508;2022-07-25T03:34:02;7.70;;;6.90;;
38117;SDS011;23928;47.562;7.508;2022-07-25T03:36:27;8.50;;;6.13;;
38117;SDS011;23928;47.562;7.508;2022-07-25T03:38:53;7.37;;;6.67;;
38117;SDS011;23928;47.562;7.508;2022-07-25T03:41:20;8.17;;;6.27;;
38117;SDS011;23928;47.562;7.508;2022-07-25T03:43:46;7.10;;;6.40;;
38117;SDS011;23928;47.562;7.508;2022-07-25T03:46:12;6.53;;;6.03;;
38117;SDS011;23928;47.562;7.508;2022-07-25T03:48:37;7.07;;;6.37;;
38117;SDS011;23928;47.562;7.508;2022-07-25T03:51:03;8.70;;;6.80;;
38117;SDS011;23928;47.562;7.508;2022-07-25T03:53:28;7.87;;;7.00;;
38117;SDS011;23928;47.562;7.508;2022-07-25T03:55:54;6.90;;;6.30;;
38117;SDS011;23928;47.562;7.508;2022-07-25T03:58:20;7.33;;;6.53;;
38117;SDS011;23928;47.562;7.508;2022-07-25T04:00:45;7.30;;;6.60;;
38117;SDS011;23928;47.562;7.508;2022-07-25T04:03:12;7.43;;;6.63;;
38117;SDS011;23928;47.562;7.508;2022-07-25T04:05:38;8.00;;;7.20;;
38117;SDS011;23928;47.562;7.508;2022-07-25T04:08:04;7.90;;;7.10;;
38117;SDS011;23928;47.562;7.508;2022-07-25T04:10:30;7.60;;;6.90;;
38117;SDS011;23928;47.562;7.508;2022-07-25T04:12:55;7.80;;;7.00;;
38117;SDS011;23928;47.562;7.508;2022-07-25T04:15:21;7.20;;;6.53;;
38117;SDS011;23928;47.562;7.508;2022-07-25T04:17:47;8.50;;;7.40;;
38117;SDS011;23928;47.562;7.508;2022-07-25T04:20:12;7.17;;;6.47;;
38117;SDS011;23928;47.562;7.508;2022-07-25T04:22:38;8.17;;;6.80;;
38117;SDS011;23928;47.562;7.508;2022-07-25T04:25:03;9.27;;;7.13;;
38117;SDS011;23928;47.562;7.508;2022-07-25T04:27:30;9.17;;;6.70;;
38117;SDS011;23928;47.562;7.508;2022-07-25T04:29:55;7.67;;;6.67;;
38117;SDS011;23928;47.562;7.508;2022-07-25T04:32:21;7.47;;;6.77;;
38117;SDS011;23928;47.562;7.508;2022-07-25T04:34:47;8.07;;;6.57;;
38117;SDS011;23928;47.562;7.508;2022-07-25T04:37:12;7.20;;;6.37;;
38117;SDS011;23928;47.562;7.508;2022-07-25T04:39:38;8.77;;;6.90;;
38117;SDS011;23928;47.562;7.508;2022-07-25T04:42:03;7.87;;;7.13;;
38117;SDS011;23928;47.562;7.508;2022-07-25T04:44:29;7.43;;;6.60;;
38117;SDS011;23928;47.562;7.508;2022-07-25T04:46:55;8.20;;;6.40;;
38117;SDS011;23928;47.562;7.508;2022-07-25T04:49:20;7.87;;;6.57;;
38117;SDS011;23928;47.562;7.508;2022-07-25T04:51:46;7.17;;;6.47;;
38117;SDS011;23928;47.562;7.508;2022-07-25T04:54:11;7.73;;;7.00;;
38117;SDS011;23928;47.562;7.508;2022-07-25T04:56:37;7.10;;;6.40;;
38117;SDS011;23928;47.562;7.508;2022-07-25T04:59:03;8.43;;;6.77;;
38117;SDS011;23928;47.562;7.508;2022-07-25T05:01:28;7.47;;;6.77;;
38117;SDS011;23928;47.562;7.508;2022-07-25T05:03:54;7.43;;;6.73;;
38117;SDS011;23928;47.562;7.508;2022-07-25T05:06:19;7.23;;;6.53;;
38117;SDS011;23928;47.562;7.508;2022-07-25T05:08:45;7.17;;;6.30;;
38117;SDS011;23928;47.562;7.508;2022-07-25T05:11:11;7.03;;;6.33;;
38117;SDS011;23928;47.562;7.508;2022-07-25T05:13:37;7.27;;;6.50;;
38117;SDS011;23928;47.562;7.508;2022-07-25T05:16:02;7.97;;;6.97;;
38117;SDS011;23928;47.562;7.508;2022-07-25T05:18:28;8.93;;;6.83;;
38117;SDS011;23928;47.562;7.508;2022-07-25T05:20:53;8.87;;;6.87;;
38117;SDS011;23928;47.562;7.508;2022-07-25T05:23:19;9.03;;;6.67;;
38117;SDS011;23928;47.562;7.508;2022-07-25T05:25:45;7.77;;;7.07;;
38117;SDS011;23928;47.562;7.508;2022-07-25T05:28:11;8.63;;;7.20;;
38117;SDS011;23928;47.562;7.508;2022-07-25T05:30:38;9.33;;;7.37;;
38117;SDS011;23928;47.562;7.508;2022-07-25T05:33:04;7.93;;;7.10;;
38117;SDS011;23928;47.562;7.508;2022-07-25T05:35:30;8.50;;;7.57;;
38117;SDS011;23928;47.562;7.508;2022-07-25T05:37:55;8.87;;;7.80;;
38117;SDS011;23928;47.562;7.508;2022-07-25T05:40:21;9.20;;;8.20;;
38117;SDS011;23928;47.562;7.508;2022-07-25T05:42:47;9.00;;;8.10;;
38117;SDS011;23928;47.562;7.508;2022-07-25T05:45:12;8.53;;;7.63;;
38117;SDS011;23928;47.562;7.508;2022-07-25T05:47:38;8.87;;;8.07;;
38117;SDS011;23928;47.562;7.508;2022-07-25T05:50:03;8.60;;;7.80;;
38117;SDS011;23928;47.562;7.508;2022-07-25T05:52:29;9.53;;;7.93;;
38117;SDS011;23928;47.562;7.508;2022-07-25T05:54:55;8.40;;;7.60;;
38117;SDS011;23928;47.562;7.508;2022-07-25T05:57:20;9.13;;;7.80;;
38117;SDS011;23928;47.562;7.508;2022-07-25T05:59:46;13.23;;;8.33;;
38117;SDS011;23928;47.562;7.508;2022-07-25T06:02:12;8.93;;;7.93;;
38117;SDS011;23928;47.562;7.508;2022-07-25T06:04:37;9.90;;;8.23;;
38117;SDS011;23928;47.562;7.508;2022-07-25T06:07:03;10.63;;;8.50;;
38117;SDS011;23928;47.562;7.508;2022-07-25T06:09:28;9.37;;;7.93;;
38117;SDS011;23928;47.562;7.508;2022-07-25T06:11:55;10.50;;;8.70;;
38117;SDS011;23928;47.562;7.508;2022-07-25T06:14:21;8.33;;;7.53;;
38117;SDS011;23928;47.562;7.508;2022-07-25T06:16:47;10.07;;;9.00;;
38117;SDS011;23928;47.562;7.508;2022-07-25T06:19:12;9.50;;;8.50;;
38117;SDS011;23928;47.562;7.508;2022-07-25T06:21:38;10.07;;;9.10;;
38117;SDS011;23928;47.562;7.508;2022-07-25T06:24:04;10.83;;;8.63;;
38117;SDS011;23928;47.562;7.508;2022-07-25T06:26:29;9.30;;;8.43;;
38117;SDS011;23928;47.562;7.508;2022-07-25T06:28:55;10.00;;;9.00;;
38117;SDS011;23928;47.562;7.508;2022-07-25T06:31:21;10.27;;;9.17;;
38117;SDS011;23928;47.562;7.508;2022-07-25T06:33:46;10.60;;;9.50;;
38117;SDS011;23928;47.562;7.508;2022-07-25T06:36:12;12.03;;;9.20;;
38117;SDS011;23928;47.562;7.508;2022-07-25T06:38:38;9.80;;;8.87;;
38117;SDS011;23928;47.562;7.508;2022-07-25T06:41:03;14.47;;;9.50;;
38117;SDS011;23928;47.562;7.508;2022-07-25T06:43:29;9.83;;;8.93;;
38117;SDS011;23928;47.562;7.508;2022-07-25T06:45:55;9.77;;;8.77;;
38117;SDS011;23928;47.562;7.508;2022-07-25T06:48:20;10.73;;;9.63;;
38117;SDS011;23928;47.562;7.508;2022-07-25T06:50:48;10.70;;;9.63;;
38117;SDS011;23928;47.562;7.508;2022-07-25T06:53:14;11.23;;;9.03;;
38117;SDS011;23928;47.562;7.508;2022-07-25T06:55:40;9.90;;;8.97;;
38117;SDS011;23928;47.562;7.508;2022-07-25T06:58:06;10.13;;;9.00;;
38117;SDS011;23928;47.562;7.508;2022-07-25T07:00:31;9.60;;;8.60;;
38117;SDS011;23928;47.562;7.508;2022-07-25T07:02:58;11.07;;;9.47;;
38117;SDS011;23928;47.562;7.508;2022-07-25T07:05:27;10.53;;;8.67;;
38117;SDS011;23928;47.562;7.508;2022-07-25T07:07:55;12.37;;;9.87;;
38117;SDS011;23928;47.562;7.508;2022-07-25T07:10:21;10.20;;;9.20;;
38117;SDS011;23928;47.562;7.508;2022-07-25T07:12:47;10.63;;;9.20;;
38117;SDS011;23928;47.562;7.508;2022-07-25T07:15:13;11.37;;;8.90;;
38117;SDS011;23928;47.562;7.508;2022-07-25T07:17:39;12.00;;;9.40;;
38117;SDS011;23928;47.562;7.508;2022-07-25T07:20:05;9.93;;;8.93;;
38117;SDS011;23928;47.562;7.508;2022-07-25T07:22:41;12.23;;;9.27;;
38117;SDS011;23928;47.562;7.508;2022-07-25T07:25:08;9.93;;;8.87;;
38117;SDS011;23928;47.562;7.508;2022-07-25T07:27:36;10.30;;;8.63;;
38117;SDS011;23928;47.562;7.508;2022-07-25T07:30:01;10.13;;;9.23;;
38117;SDS011;23928;47.562;7.508;2022-07-25T07:32:27;12.37;;;9.60;;
38117;SDS011;23928;47.562;7.508;2022-07-25T07:34:53;12.63;;;9.57;;
38117;SDS011;23928;47.562;7.508;2022-07-25T07:37:18;10.97;;;9.00;;
38117;SDS011;23928;47.562;7.508;2022-07-25T07:39:44;10.43;;;9.33;;
38117;SDS011;23928;47.562;7.508;2022-07-25T07:42:09;11.17;;;9.37;;
38117;SDS011;23928;47.562;7.508;2022-07-25T07:44:35;12.20;;;9.37;;
38117;SDS011;23928;47.562;7.508;2022-07-25T07:47:01;9.43;;;8.37;;
38117;SDS011;23928;47.562;7.508;2022-07-25T07:49:27;10.03;;;8.93;;
38117;SDS011;23928;47.562;7.508;2022-07-25T07:51:53;10.60;;;9.60;;
38117;SDS011;23928;47.562;7.508;2022-07-25T07:54:19;10.27;;;9.27;;
38117;SDS011;23928;47.562;7.508;2022-07-25T07:57:03;14.03;;;9.73;;
38117;SDS011;23928;47.562;7.508;2022-07-25T07:59:29;10.03;;;8.97;;
38117;SDS011;23928;47.562;7.508;2022-07-25T08:01:54;9.53;;;8.63;;
38117;SDS011;23928;47.562;7.508;2022-07-25T08:04:20;10.20;;;9.20;;
38117;SDS011;23928;47.562;7.508;2022-07-25T08:06:46;10.40;;;9.03;;
38117;SDS011;23928;47.562;7.508;2022-07-25T08:09:11;10.37;;;8.73;;
38117;SDS011;23928;47.562;7.508;2022-07-25T08:11:37;10.00;;;9.00;;
38117;SDS011;23928;47.562;7.508;2022-07-25T08:14:03;10.00;;;8.40;;
38117;SDS011;23928;47.562;7.508;2022-07-25T08:16:30;9.53;;;8.73;;
38117;SDS011;23928;47.562;7.508;2022-07-25T08:18:57;9.63;;;8.73;;
38117;SDS011;23928;47.562;7.508;2022-07-25T08:21:22;8.97;;;8.07;;
38117;SDS011;23928;47.562;7.508;2022-07-25T08:23:48;11.13;;;8.93;;
38117;SDS011;23928;47.562;7.508;2022-07-25T08:26:14;11.27;;;9.23;;
38117;SDS011;23928;47.562;7.508;2022-07-25T08:28:40;9.97;;;8.93;;
38117;SDS011;23928;47.562;7.508;2022-07-25T08:31:06;10.77;;;8.50;;
38117;SDS011;23928;47.562;7.508;2022-07-25T08:33:32;9.83;;;8.87;;
38117;SDS011;23928;47.562;7.508;2022-07-25T08:35:58;10.90;;;8.83;;
38117;SDS011;23928;47.562;7.508;2022-07-25T08:38:25;10.03;;;8.60;;
38117;SDS011;23928;47.562;7.508;2022-07-25T08:40:53;9.73;;;8.63;;
38117;SDS011;23928;47.562;7.508;2022-07-25T08:43:20;10.50;;;8.43;;
38117;SDS011;23928;47.562;7.508;2022-07-25T08:45:47;8.63;;;7.83;;
38117;SDS011;23928;47.562;7.508;2022-07-25T08:48:24;11.07;;;7.93;;
38117;SDS011;23928;47.562;7.508;2022-07-25T08:50:51;7.73;;;7.03;;
38117;SDS011;23928;47.562;7.508;2022-07-25T08:53:18;7.63;;;6.77;;
38117;SDS011;23928;47.562;7.508;2022-07-25T08:55:45;8.00;;;7.20;;
38117;SDS011;23928;47.562;7.508;2022-07-25T08:58:15;8.87;;;7.93;;
38117;SDS011;23928;47.562;7.508;2022-07-25T09:00:43;7.67;;;6.97;;
38117;SDS011;23928;47.562;7.508;2022-07-25T09:03:10;8.00;;;7.17;;
38117;SDS011;23928;47.562;7.508;2022-07-25T09:05:36;8.17;;;7.17;;
38117;SDS011;23928;47.562;7.508;2022-07-25T09:08:12;8.10;;;7.40;;
38117;SDS011;23928;47.562;7.508;2022-07-25T09:10:49;8.87;;;7.37;;
38117;SDS011;23928;47.562;7.508;2022-07-25T09:19:17;8.23;;;7.40;;
38117;SDS011;23928;47.562;7.508;2022-07-25T09:21:57;8.37;;;7.53;;
38117;SDS011;23928;47.562;7.508;2022-07-25T09:24:27;7.83;;;7.13;;
38117;SDS011;23928;47.562;7.508;2022-07-25T09:26:55;8.87;;;8.03;;
38117;SDS011;23928;47.562;7.508;2022-07-25T09:29:26;7.80;;;7.10;;
38117;SDS011;23928;47.562;7.508;2022-07-25T09:31:54;8.50;;;7.70;;
38117;SDS011;23928;47.562;7.508;2022-07-25T09:34:37;8.43;;;7.60;;
38117;SDS011;23928;47.562;7.508;2022-07-25T09:37:05;9.27;;;7.87;;
38117;SDS011;23928;47.562;7.508;2022-07-25T09:39:33;8.20;;;7.40;;
38117;SDS011;23928;47.562;7.508;2022-07-25T09:42:12;7.93;;;7.07;;
38117;SDS011;23928;47.562;7.508;2022-07-25T09:44:59;7.47;;;6.83;;
38117;SDS011;23928;47.562;7.508;2022-07-25T09:47:27;8.33;;;6.67;;
38117;SDS011;23928;47.562;7.508;2022-07-25T09:49:54;7.73;;;6.93;;
38117;SDS011;23928;47.562;7.508;2022-07-25T09:52:20;8.53;;;7.13;;
38117;SDS011;23928;47.562;7.508;2022-07-25T09:54:46;9.43;;;6.90;;
38117;SDS011;23928;47.562;7.508;2022-07-25T09:57:12;8.00;;;7.20;;
38117;SDS011;23928;47.562;7.508;2022-07-25T09:59:38;7.67;;;6.77;;
38117;SDS011;23928;47.562;7.508;2022-07-25T10:02:05;7.77;;;6.97;;
38117;SDS011;23928;47.562;7.508;2022-07-25T10:07:19;7.53;;;6.80;;
38117;SDS011;23928;47.562;7.508;2022-07-25T10:09:47;7.30;;;6.70;;
38117;SDS011;23928;47.562;7.508;2022-07-25T10:12:17;7.37;;;6.67;;
38117;SDS011;23928;47.562;7.508;2022-07-25T10:15:02;7.27;;;6.37;;
38117;SDS011;23928;47.562;7.508;2022-07-25T10:17:36;6.77;;;6.17;;
38117;SDS011;23928;47.562;7.508;2022-07-25T10:20:04;6.80;;;6.30;;
38117;SDS011;23928;47.562;7.508;2022-07-25T10:22:41;7.80;;;7.10;;
38117;SDS011;23928;47.562;7.508;2022-07-25T10:25:11;6.63;;;5.93;;
38117;SDS011;23928;47.562;7.508;2022-07-25T10:27:42;5.77;;;5.27;;
38117;SDS011;23928;47.562;7.508;2022-07-25T10:30:26;5.53;;;5.13;;
38117;SDS011;23928;47.562;7.508;2022-07-25T10:32:58;6.07;;;5.40;;
38117;SDS011;23928;47.562;7.508;2022-07-25T10:35:28;5.77;;;5.27;;
38117;SDS011;23928;47.562;7.508;2022-07-25T10:37:54;5.20;;;4.77;;
38117;SDS011;23928;47.562;7.508;2022-07-25T10:40:41;6.10;;;4.73;;
38117;SDS011;23928;47.562;7.508;2022-07-25T10:43:12;5.90;;;5.30;;
38117;SDS011;23928;47.562;7.508;2022-07-25T10:45:49;4.93;;;4.50;;
38117;SDS011;23928;47.562;7.508;2022-07-25T10:48:36;5.50;;;5.00;;
38117;SDS011;23928;47.562;7.508;2022-07-25T10:51:11;5.60;;;4.70;;
38117;SDS011;23928;47.562;7.508;2022-07-25T10:56:08;8.73;;;5.13;;
38117;SDS011;23928;47.562;7.508;2022-07-25T10:58:48;5.40;;;5.00;;
38117;SDS011;23928;47.562;7.508;2022-07-25T11:01:19;5.00;;;4.60;;
38117;SDS011;23928;47.562;7.508;2022-07-25T11:03:45;6.43;;;5.43;;
38117;SDS011;23928;47.562;7.508;2022-07-25T11:06:11;5.13;;;4.63;;
38117;SDS011;23928;47.562;7.508;2022-07-25T11:08:39;5.53;;;4.70;;
38117;SDS011;23928;47.562;7.508;2022-07-25T11:11:05;4.90;;;4.40;;
38117;SDS011;23928;47.562;7.508;2022-07-25T11:13:40;7.20;;;4.85;;
38117;SDS011;23928;47.562;7.508;2022-07-25T11:16:07;4.65;;;4.25;;
38117;SDS011;23928;47.562;7.508;2022-07-25T11:18:37;4.95;;;4.55;;
38117;SDS011;23928;47.562;7.508;2022-07-25T11:21:05;5.77;;;4.87;;
38117;SDS011;23928;47.562;7.508;2022-07-25T11:23:31;5.15;;;4.65;;
38117;SDS011;23928;47.562;7.508;2022-07-25T11:26:05;5.47;;;4.80;;
38117;SDS011;23928;47.562;7.508;2022-07-25T11:28:36;5.07;;;4.72;;
38117;SDS011;23928;47.562;7.508;2022-07-25T11:31:06;5.75;;;4.32;;
38117;SDS011;23928;47.562;7.508;2022-07-25T11:33:32;5.95;;;4.35;;
38117;SDS011;23928;47.562;7.508;2022-07-25T11:35:58;4.90;;;4.47;;
38117;SDS011;23928;47.562;7.508;2022-07-25T11:38:25;5.68;;;4.35;;
38117;SDS011;23928;47.562;7.508;2022-07-25T11:40:51;5.97;;;4.90;;
38117;SDS011;23928;47.562;7.508;2022-07-25T11:43:21;5.23;;;4.43;;
38117;SDS011;23928;47.562;7.508;2022-07-25T11:48:28;4.90;;;4.50;;
38117;SDS011;23928;47.562;7.508;2022-07-25T11:51:09;6.60;;;4.65;;
38117;SDS011;23928;47.562;7.508;2022-07-25T11:53:44;4.65;;;4.25;;
38117;SDS011;23928;47.562;7.508;2022-07-25T11:56:12;4.90;;;4.50;;
38117;SDS011;23928;47.562;7.508;2022-07-25T11:58:40;5.43;;;4.32;;
38117;SDS011;23928;47.562;7.508;2022-07-25T12:01:10;5.22;;;4.75;;
38117;SDS011;23928;47.562;7.508;2022-07-25T12:03:37;5.05;;;4.55;;
38117;SDS011;23928;47.562;7.508;2022-07-25T12:06:07;4.60;;;4.18;;
38117;SDS011;23928;47.562;7.508;2022-07-25T12:08:36;5.60;;;4.22;;
38117;SDS011;23928;47.562;7.508;2022-07-25T12:11:03;5.07;;;4.60;;
38117;SDS011;23928;47.562;7.508;2022-07-25T12:13:40;4.70;;;4.30;;
38117;SDS011;23928;47.562;7.508;2022-07-25T12:16:05;4.93;;;4.40;;
38117;SDS011;23928;47.562;7.508;2022-07-25T12:18:31;5.40;;;4.50;;
38117;SDS011;23928;47.562;7.508;2022-07-25T12:20:57;5.10;;;4.65;;
38117;SDS011;23928;47.562;7.508;2022-07-25T12:23:23;4.70;;;4.10;;
38117;SDS011;23928;47.562;7.508;2022-07-25T12:25:48;6.20;;;4.40;;
38117;SDS011;23928;47.562;7.508;2022-07-25T12:28:14;5.05;;;4.55;;
38117;SDS011;23928;47.562;7.508;2022-07-25T12:30:41;4.63;;;4.23;;
38117;SDS011;23928;47.562;7.508;2022-07-25T12:33:08;4.55;;;4.15;;
38117;SDS011;23928;47.562;7.508;2022-07-25T12:35:34;6.40;;;4.32;;
38117;SDS011;23928;47.562;7.508;2022-07-25T12:38:03;5.93;;;4.60;;
38117;SDS011;23928;47.562;7.508;2022-07-25T12:40:29;4.60;;;4.20;;
38117;SDS011;23928;47.562;7.508;2022-07-25T12:42:54;5.78;;;5.00;;
38117;SDS011;23928;47.562;7.508;2022-07-25T12:45:22;4.70;;;4.25;;
38117;SDS011;23928;47.562;7.508;2022-07-25T12:47:47;4.75;;;4.32;;
38117;SDS011;23928;47.562;7.508;2022-07-25T12:50:14;5.47;;;4.50;;
38117;SDS011;23928;47.562;7.508;2022-07-25T12:52:40;5.68;;;4.22;;
38117;SDS011;23928;47.562;7.508;2022-07-25T12:55:07;4.68;;;4.28;;
38117;SDS011;23928;47.562;7.508;2022-07-25T12:57:36;5.22;;;4.53;;
38117;SDS011;23928;47.562;7.508;2022-07-25T13:00:06;4.45;;;4.05;;
38117;SDS011;23928;47.562;7.508;2022-07-25T13:02:34;4.32;;;4.03;;
38117;SDS011;23928;47.562;7.508;2022-07-25T13:05:00;4.47;;;4.07;;
38117;SDS011;23928;47.562;7.508;2022-07-25T13:07:26;4.90;;;4.50;;
38117;SDS011;23928;47.562;7.508;2022-07-25T13:09:52;4.68;;;4.22;;
38117;SDS011;23928;47.562;7.508;2022-07-25T13:12:18;7.35;;;4.28;;
38117;SDS011;23928;47.562;7.508;2022-07-25T13:14:44;5.00;;;4.40;;
38117;SDS011;23928;47.562;7.508;2022-07-25T13:17:10;5.75;;;4.40;;
38117;SDS011;23928;47.562;7.508;2022-07-25T13:19:35;4.72;;;4.28;;
38117;SDS011;23928;47.562;7.508;2022-07-25T13:22:01;5.10;;;4.68;;
38117;SDS011;23928;47.562;7.508;2022-07-25T13:24:27;4.97;;;4.10;;
38117;SDS011;23928;47.562;7.508;2022-07-25T13:26:53;4.88;;;4.47;;
38117;SDS011;23928;47.562;7.508;2022-07-25T13:29:18;4.95;;;3.88;;
38117;SDS011;23928;47.562;7.508;2022-07-25T13:31:44;4.85;;;3.88;;
38117;SDS011;23928;47.562;7.508;2022-07-25T13:34:11;4.50;;;4.10;;
38117;SDS011;23928;47.562;7.508;2022-07-25T13:36:37;6.10;;;4.60;;
38117;SDS011;23928;47.562;7.508;2022-07-25T13:39:03;5.28;;;4.22;;
38117;SDS011;23928;47.562;7.508;2022-07-25T13:41:30;4.63;;;4.22;;
38117;SDS011;23928;47.562;7.508;2022-07-25T13:43:55;5.28;;;4.78;;
38117;SDS011;23928;47.562;7.508;2022-07-25T13:46:21;4.57;;;4.10;;
38117;SDS011;23928;47.562;7.508;2022-07-25T13:48:47;4.90;;;4.40;;
38117;SDS011;23928;47.562;7.508;2022-07-25T13:51:13;4.88;;;4.47;;
38117;SDS011;23928;47.562;7.508;2022-07-25T13:53:39;5.68;;;4.38;;
38117;SDS011;23928;47.562;7.508;2022-07-25T13:56:05;4.47;;;4.07;;
38117;SDS011;23928;47.562;7.508;2022-07-25T13:58:31;5.43;;;4.22;;
38117;SDS011;23928;47.562;7.508;2022-07-25T14:00:57;7.07;;;4.90;;
38117;SDS011;23928;47.562;7.508;2022-07-25T14:03:24;5.43;;;4.70;;
38117;SDS011;23928;47.562;7.508;2022-07-25T14:05:50;4.72;;;4.32;;
38117;SDS011;23928;47.562;7.508;2022-07-25T14:08:15;5.18;;;4.38;;
38117;SDS011;23928;47.562;7.508;2022-07-25T14:10:41;5.25;;;4.75;;
38117;SDS011;23928;47.562;7.508;2022-07-25T14:13:07;5.03;;;4.63;;
38117;SDS011;23928;47.562;7.508;2022-07-25T14:15:33;4.75;;;4.35;;
38117;SDS011;23928;47.562;7.508;2022-07-25T14:17:59;6.40;;;5.32;;
38117;SDS011;23928;47.562;7.508;2022-07-25T14:20:24;5.25;;;4.78;;
38117;SDS011;23928;47.562;7.508;2022-07-25T14:22:50;5.32;;;4.57;;
38117;SDS011;23928;47.562;7.508;2022-07-25T14:25:16;5.25;;;4.75;;
38117;SDS011;23928;47.562;7.508;2022-07-25T14:27:41;4.88;;;4.32;;
38117;SDS011;23928;47.562;7.508;2022-07-25T14:30:09;6.13;;;4.75;;
38117;SDS011;23928;47.562;7.508;2022-07-25T14:32:35;5.10;;;4.60;;
38117;SDS011;23928;47.562;7.508;2022-07-25T14:35:01;4.75;;;4.35;;
38117;SDS011;23928;47.562;7.508;2022-07-25T14:37:27;6.00;;;4.57;;
38117;SDS011;23928;47.562;7.508;2022-07-25T14:39:55;6.07;;;4.70;;
38117;SDS011;23928;47.562;7.508;2022-07-25T14:42:24;6.50;;;4.63;;
38117;SDS011;23928;47.562;7.508;2022-07-25T14:44:50;5.18;;;4.45;;
38117;SDS011;23928;47.562;7.508;2022-07-25T14:47:16;4.65;;;4.25;;
38117;SDS011;23928;47.562;7.508;2022-07-25T14:49:42;5.15;;;4.65;;
38117;SDS011;23928;47.562;7.508;2022-07-25T14:52:07;4.90;;;4.38;;
38117;SDS011;23928;47.562;7.508;2022-07-25T14:54:34;4.88;;;4.47;;
38117;SDS011;23928;47.562;7.508;2022-07-25T14:57:00;5.30;;;4.85;;
38117;SDS011;23928;47.562;7.508;2022-07-25T14:59:26;7.80;;;4.95;;